Time;durP1;ratioP1;P1;durP2;ratioP2;P2;SDS_P1;SDS_P2;PMS_P1;PMS_P2;Temp;Humidity;BMP_temperature;BMP_pressure;BME280_temperature;BME280_humidity;BME280_pressure;Samples;Min_cycle;Max_cycle;Signal;HPM_P1;HPM_P2
2020/12/04 00:02:08;;;;;;;34.77;19.73;;;;;;;-1.80;76.11;96361.39;1776571;79;21547;-61
2020/12/04 00:04:36;;;;;;;33.80;19.62;;;;;;;-1.75;76.15;96362.11;1763381;80;21628;-63
2020/12/04 00:07:04;;;;;;;36.53;19.40;;;;;;;-1.65;75.99;96359.72;1757172;80;21123;-61
2020/12/04 00:09:32;;;;;;;30.68;18.30;;;;;;;-1.56;75.76;96367.58;1765775;79;21080;-62
2020/12/04 00:12:00;;;;;;;29.65;17.55;;;;;;;-1.50;75.53;96369.52;1760250;80;21582;-61
2020/12/04 00:14:29;;;;;;;31.07;18.85;;;;;;;-1.48;75.03;96369.48;1752068;80;21540;-62
2020/12/04 00:16:57;;;;;;;29.85;17.77;;;;;;;-1.59;75.12;96371.47;1767128;80;21360;-63
2020/12/04 00:19:26;;;;;;;31.27;16.93;;;;;;;-1.70;75.45;96384.45;1761740;80;21588;-63
2020/12/04 00:21:54;;;;;;;31.02;18.87;;;;;;;-1.84;75.85;96372.09;1754241;80;21509;-63
2020/12/04 00:24:22;;;;;;;36.67;21.03;;;;;;;-1.95;76.38;96369.80;1767005;80;21135;-63
2020/12/04 00:26:50;;;;;;;32.75;17.57;;;;;;;-1.98;76.57;96371.14;1766941;80;21127;-63
2020/12/04 00:29:18;;;;;;;33.35;19.92;;;;;;;-1.98;76.77;96364.78;1770130;80;21194;-62
2020/12/04 00:31:45;;;;;;;33.15;18.80;;;;;;;-2.00;76.76;96361.90;1762512;80;21071;-63
2020/12/04 00:34:14;;;;;;;33.73;19.75;;;;;;;-2.04;77.00;96354.34;1766433;80;21052;-62
2020/12/04 00:36:46;;;;;;;34.10;19.77;;;;;;;-2.09;77.15;96351.08;1732209;80;21065;-63
2020/12/04 00:39:14;;;;;;;34.15;19.10;;;;;;;-2.13;77.26;96346.92;1755727;80;21084;-63
2020/12/04 00:41:43;;;;;;;34.50;19.95;;;;;;;-2.13;77.29;96352.45;1731636;80;21196;-63
2020/12/04 00:44:11;;;;;;;33.98;19.50;;;;;;;-2.12;77.38;96362.59;1776909;80;21111;-63
2020/12/04 00:46:40;;;;;;;32.65;18.62;;;;;;;-2.08;77.38;96357.81;1765281;80;21697;-63
2020/12/04 00:49:09;;;;;;;35.73;20.88;;;;;;;-2.05;77.25;96351.83;1776652;80;21550;-64
2020/12/04 00:51:38;;;;;;;35.45;19.15;;;;;;;-2.10;77.23;96348.58;1766554;80;21556;-64
2020/12/04 00:54:06;;;;;;;31.62;17.90;;;;;;;-2.16;77.40;96343.63;1770182;80;21162;-64
2020/12/04 00:56:36;;;;;;;33.60;18.10;;;;;;;-2.27;77.68;96346.00;1755211;79;21493;-62
2020/12/04 00:59:06;;;;;;;32.45;18.85;;;;;;;-2.30;77.81;96335.91;1786882;79;21059;-62
2020/12/04 01:01:34;;;;;;;26.42;16.45;;;;;;;-2.23;77.75;96345.03;1764943;81;21079;-63
2020/12/04 01:04:02;;;;;;;36.45;21.12;;;;;;;-2.14;77.53;96339.33;1766084;81;21051;-63
2020/12/04 01:06:29;;;;;;;28.25;16.37;;;;;;;-2.12;77.41;96329.54;1731152;81;22269;-64
2020/12/04 01:08:57;;;;;;;33.30;20.08;;;;;;;-2.02;77.26;96331.84;1759358;81;21512;-63
2020/12/04 01:11:27;;;;;;;31.20;17.82;;;;;;;-1.94;77.07;96338.84;1758264;81;21138;-63
2020/12/04 01:13:55;;;;;;;33.28;18.32;;;;;;;-1.82;76.68;96319.47;1746619;81;21064;-64
2020/12/04 01:16:23;;;;;;;33.23;20.32;;;;;;;-1.76;76.10;96308.28;1765589;81;21150;-65
2020/12/04 01:18:51;;;;;;;32.70;18.57;;;;;;;-1.83;75.89;96312.70;1790989;79;21139;-66
2020/12/04 01:21:18;;;;;;;29.70;16.73;;;;;;;-1.81;75.99;96308.84;1749083;81;21631;-66
2020/12/04 01:23:46;;;;;;;32.95;17.98;;;;;;;-1.76;75.70;96319.73;1781547;79;21063;-65
2020/12/04 01:26:14;;;;;;;31.12;17.23;;;;;;;-1.78;75.58;96324.03;1778065;78;21076;-65
2020/12/04 01:28:42;;;;;;;32.48;18.42;;;;;;;-1.89;75.63;96317.52;1724390;82;21088;-65
2020/12/04 01:31:10;;;;;;;33.35;17.95;;;;;;;-2.05;76.09;96316.23;1730495;81;21584;-66
2020/12/04 01:33:37;;;;;;;33.53;19.98;;;;;;;-2.25;76.71;96314.20;1749680;81;21612;-65
2020/12/04 01:36:05;;;;;;;31.20;18.00;;;;;;;-2.37;77.13;96305.58;1761301;81;21188;-61
2020/12/04 01:38:33;;;;;;;35.73;19.82;;;;;;;-2.33;77.33;96313.55;1739650;81;22077;-60
2020/12/04 01:41:01;;;;;;;34.40;18.48;;;;;;;-2.27;77.30;96304.06;1737795;81;21137;-62
2020/12/04 01:43:29;;;;;;;30.23;17.20;;;;;;;-2.16;77.09;96309.31;1767014;81;21208;-60
2020/12/04 01:45:57;;;;;;;28.20;16.95;;;;;;;-2.18;77.01;96308.52;1761255;81;21065;-61
2020/12/04 01:48:26;;;;;;;30.40;17.70;;;;;;;-2.22;77.01;96317.48;1748515;80;28577;-61
2020/12/04 01:50:53;;;;;;;32.93;17.32;;;;;;;-2.19;77.01;96311.48;1752132;81;21612;-59
2020/12/04 01:53:22;;;;;;;33.23;19.97;;;;;;;-2.24;77.33;96303.99;1740250;81;21133;-60
2020/12/04 01:55:50;;;;;;;;;;;;;;;-2.24;77.33;96303.99;1756292;81;21436;-60
2020/12/04 01:58:18;;;;;;;28.45;16.52;;;;;;;-2.14;77.01;96319.00;1741519;81;21934;-59
2020/12/04 02:00:47;;;;;;;30.88;17.15;;;;;;;-2.13;76.85;96305.42;1737608;81;21510;-61
2020/12/04 02:03:15;;;;;;;31.57;18.55;;;;;;;-2.08;76.88;96299.78;1751323;81;21070;-60
2020/12/04 02:05:58;;;;;;;30.02;17.55;;;;;;;-2.04;76.52;96288.65;1762486;81;21050;-60
2020/12/04 02:08:42;;;;;;;30.68;17.90;;;;;;;-1.96;76.47;96295.64;1762126;80;21353;-61
2020/12/04 02:11:18;;;;;;;33.92;19.07;;;;;;;-1.98;76.16;96303.76;1744685;81;21108;-61
2020/12/04 02:13:49;;;;;;;30.20;17.52;;;;;;;-1.98;76.17;96297.40;1764327;81;21059;-61
2020/12/04 02:16:20;;;;;;;33.40;18.07;;;;;;;-1.96;76.03;96296.91;1764470;81;21057;-61
2020/12/04 02:18:49;;;;;;;32.65;17.75;;;;;;;-2.05;76.08;96299.72;1747410;81;21156;-60
2020/12/04 02:21:18;;;;;;;34.45;18.73;;;;;;;-2.15;76.35;96305.91;1746098;81;22191;-60
2020/12/04 02:23:47;;;;;;;;;;;;;;;-2.26;76.56;96306.98;1765881;81;21502;-60
2020/12/04 02:26:17;;;;;;;28.95;16.27;;;;;;;-2.26;76.72;96306.16;1763630;81;20226;-61
2020/12/04 02:28:45;;;;;;;30.68;18.20;;;;;;;-2.36;76.93;96314.88;1757904;81;21073;-61
2020/12/04 02:31:13;;;;;;;27.93;17.35;;;;;;;-2.45;77.09;96316.77;1734315;81;21045;-61
2020/12/04 02:33:41;;;;;;;31.17;15.55;;;;;;;-2.49;77.28;96305.44;1734989;81;21370;-61
2020/12/04 02:36:10;;;;;;;29.90;18.07;;;;;;;-2.51;77.29;96298.30;1748669;81;21136;-59
2020/12/04 02:38:37;;;;;;;30.70;18.70;;;;;;;-2.59;77.43;96297.20;1755086;81;21192;-62
2020/12/04 02:41:07;;;;;;;33.50;18.60;;;;;;;-2.64;77.52;96299.02;1741664;81;21064;-62
2020/12/04 02:43:36;;;;;;;25.80;14.30;;;;;;;-2.59;77.54;96299.73;1745454;81;21053;-62
2020/12/04 02:46:07;;;;;;;33.23;17.37;;;;;;;-2.46;77.50;96295.21;1751251;81;21370;-62
2020/12/04 02:48:35;;;;;;;33.33;18.87;;;;;;;-2.34;77.07;96300.42;1741016;81;21093;-61
2020/12/04 02:51:08;;;;;;;33.48;20.08;;;;;;;-2.26;76.84;96308.25;1743827;81;21057;-64
2020/12/04 02:53:36;;;;;;;35.83;21.35;;;;;;;-2.18;76.43;96308.08;1730685;81;21062;-65
2020/12/04 02:56:04;;;;;;;31.90;18.87;;;;;;;-2.13;76.03;96292.72;1741311;81;21074;-64
2020/12/04 02:58:32;;;;;;;33.23;19.45;;;;;;;-2.08;75.79;96284.09;1750211;81;21413;-64
2020/12/04 03:01:00;;;;;;;33.95;20.68;;;;;;;-2.06;75.37;96274.73;1745873;80;21129;-64
2020/12/04 03:03:28;;;;;;;29.67;15.90;;;;;;;-2.07;75.06;96274.77;1756890;81;21128;-62
2020/12/04 03:05:55;;;;;;;32.28;17.10;;;;;;;-2.13;75.00;96275.75;1742815;81;22007;-61
2020/12/04 03:08:25;;;;;;;31.97;17.52;;;;;;;-2.12;75.19;96266.41;1750557;81;21113;-62
2020/12/04 03:10:56;;;;;;;31.17;18.47;;;;;;;-2.16;75.69;96266.09;1738640;81;21265;-62
2020/12/04 03:13:23;;;;;;;27.62;15.43;;;;;;;-2.19;76.10;96276.34;1758946;81;21157;-62
2020/12/04 03:15:53;;;;;;;31.80;18.07;;;;;;;-2.23;77.06;96275.14;1743357;81;21493;-61
2020/12/04 03:18:22;;;;;;;;;;;;;;;-2.31;77.38;96287.20;1743440;81;21116;-62
2020/12/04 03:20:51;;;;;;;31.10;17.30;;;;;;;-2.34;77.68;96288.99;1760164;81;20218;-61
2020/12/04 03:23:19;;;;;;;35.25;17.90;;;;;;;-2.32;77.70;96283.42;1743239;81;21451;-62
2020/12/04 03:25:49;;;;;;;28.45;15.55;;;;;;;-2.29;77.83;96278.27;1748784;81;21169;-61
2020/12/04 03:28:17;;;;;;;31.12;17.15;;;;;;;-2.35;78.01;96271.65;1749097;81;21053;-61
2020/12/04 03:30:44;;;;;;;27.42;14.95;;;;;;;-2.31;78.08;96271.13;1752457;80;21057;-62
2020/12/04 03:33:12;;;;;;;31.25;17.35;;;;;;;-2.31;78.16;96268.59;1754985;81;21038;-61
2020/12/04 03:35:41;;;;;;;28.02;15.05;;;;;;;-2.26;78.08;96252.34;1743377;80;21263;-61
2020/12/04 03:38:10;;;;;;;28.52;15.70;;;;;;;-2.13;78.03;96246.95;1754653;81;21943;-62
2020/12/04 03:40:38;;;;;;;;;;;;;;;-2.17;78.17;96246.62;1745466;81;21164;-62
2020/12/04 03:43:06;;;;;;;30.37;16.05;;;;;;;-2.32;78.45;96263.09;1750575;81;20242;-62
2020/12/04 03:45:33;;;;;;;28.55;15.70;;;;;;;-2.42;78.84;96255.72;1754702;81;21045;-63
2020/12/04 03:48:01;;;;;;;30.40;15.55;;;;;;;-2.51;79.53;96250.03;1746655;81;22311;-62
2020/12/04 03:50:29;;;;;;;31.97;16.48;;;;;;;-2.55;79.89;96242.06;1742226;81;21145;-63
2020/12/04 03:52:57;;;;;;;29.80;14.68;;;;;;;-2.64;80.79;96240.14;1749507;81;21176;-63
2020/12/04 03:55:24;;;;;;;32.25;16.85;;;;;;;-2.70;80.89;96253.43;1749732;81;22013;-62
2020/12/04 03:57:52;;;;;;;29.90;16.55;;;;;;;-2.68;80.81;96258.03;1739314;81;21215;-62
2020/12/04 04:00:22;;;;;;;28.98;15.18;;;;;;;-2.62;80.65;96251.55;1748068;81;21990;-62
2020/12/04 04:02:49;;;;;;;30.68;16.62;;;;;;;-2.60;80.58;96257.41;1741104;81;21136;-63
2020/12/04 04:05:19;;;;;;;28.57;16.75;;;;;;;-2.59;80.09;96254.84;1748080;81;21073;-62
2020/12/04 04:07:49;;;;;;;24.87;14.03;;;;;;;-2.61;80.01;96252.78;1751850;80;21049;-62
2020/12/04 04:10:17;;;;;;;28.45;14.98;;;;;;;-2.56;79.70;96251.41;1739095;81;21077;-62
2020/12/04 04:12:44;;;;;;;27.00;16.30;;;;;;;-2.59;79.00;96243.41;1751684;81;21250;-61
2020/12/04 04:15:12;;;;;;;30.27;16.40;;;;;;;-2.59;79.00;96243.41;1742554;81;21471;-62
2020/12/04 04:17:39;;;;;;;29.55;16.37;;;;;;;-2.58;78.78;96236.64;1750433;81;21117;-62
2020/12/04 04:20:07;;;;;;;27.30;15.23;;;;;;;-2.52;78.47;96240.73;1750560;81;21164;-63
2020/12/04 04:22:36;;;;;;;26.25;16.55;;;;;;;-2.41;78.02;96229.42;1747153;81;21080;-63
2020/12/04 04:25:04;;;;;;;25.72;14.35;;;;;;;-2.32;77.63;96230.06;1751903;81;21420;-62
2020/12/04 04:27:33;;;;;;;28.42;16.07;;;;;;;-2.25;77.20;96230.32;1735269;81;27622;-63
2020/12/04 04:30:00;;;;;;;31.33;17.00;;;;;;;-2.16;76.67;96232.61;1742550;80;21160;-63
2020/12/04 04:32:30;;;;;;;24.67;15.13;;;;;;;-2.07;76.50;96243.81;1749853;81;21124;-63
2020/12/04 04:34:59;;;;;;;27.98;15.93;;;;;;;-1.92;75.87;96236.67;1762684;81;21129;-62
2020/12/04 04:37:27;;;;;;;26.33;16.83;;;;;;;-1.84;75.21;96236.02;1749356;81;21298;-62
2020/12/04 04:39:55;;;;;;;29.72;17.32;;;;;;;-1.79;74.92;96251.98;1745428;81;21140;-62
2020/12/04 04:42:23;;;;;;;26.17;16.97;;;;;;;-1.70;74.40;96237.73;1749732;81;21093;-61
2020/12/04 04:44:51;;;;;;;29.18;17.27;;;;;;;-1.57;74.05;96236.95;1751064;81;21100;-61
2020/12/04 04:47:20;;;;;;;27.97;15.73;;;;;;;-1.48;73.59;96234.61;1748829;80;21549;-61
2020/12/04 04:49:51;;;;;;;27.25;16.67;;;;;;;-1.47;73.76;96240.52;1755516;81;21198;-61
2020/12/04 04:52:19;;;;;;;24.95;14.03;;;;;;;-1.67;73.96;96231.29;1749926;81;21129;-61
2020/12/04 04:54:49;;;;;;;29.20;17.33;;;;;;;-1.75;75.01;96240.84;1750704;81;21521;-60
2020/12/04 04:57:22;;;;;;;32.98;16.32;;;;;;;-1.82;75.20;96246.98;1750134;81;21486;-60
2020/12/04 04:59:53;;;;;;;30.70;17.37;;;;;;;-1.75;75.10;96249.74;1743697;80;21117;-60
2020/12/04 05:02:22;;;;;;;32.15;16.87;;;;;;;-1.69;74.82;96245.77;1753480;81;21344;-61
2020/12/04 05:04:53;;;;;;;26.42;15.78;;;;;;;-1.62;74.80;96248.15;1754879;81;26997;-65
2020/12/04 05:07:31;;;;;;;33.23;18.35;;;;;;;-1.47;74.19;96237.98;1753490;81;21383;-62
2020/12/04 05:10:22;;;;;;;32.40;18.05;;;;;;;-1.46;73.88;96244.72;1740810;81;21585;-62
2020/12/04 05:13:00;;;;;;;29.67;15.28;;;;;;;-1.35;73.75;96246.10;1736131;81;21136;-62
2020/12/04 05:15:29;;;;;;;31.90;17.45;;;;;;;-1.18;73.04;96255.78;1735139;81;21206;-63
2020/12/04 05:18:02;;;;;;;;;;;;;;;-1.18;72.52;96256.23;1757802;81;21499;-63
2020/12/04 05:20:30;;;;;;;23.87;14.63;;;;;;;-1.16;72.19;96255.29;1732646;81;20217;-62
2020/12/04 05:22:58;;;;;;;25.43;16.07;;;;;;;-1.09;71.52;96250.02;1733329;81;21148;-61
2020/12/04 05:25:26;;;;;;;26.37;16.40;;;;;;;-1.27;71.40;96249.67;1747746;81;21522;-61
2020/12/04 05:27:55;;;;;;;32.45;16.73;;;;;;;-1.44;71.60;96242.53;1740486;81;21557;-62
2020/12/04 05:30:27;;;;;;;26.37;16.00;;;;;;;-1.52;71.75;96237.66;1703213;81;21613;-62
2020/12/04 05:33:01;;;;;;;28.90;16.57;;;;;;;-1.49;71.88;96230.38;1736657;81;21037;-62
2020/12/04 05:35:30;;;;;;;29.23;17.40;;;;;;;-1.49;71.77;96227.39;1704392;81;21106;-62
2020/12/04 05:38:14;;;;;;;25.48;15.75;;;;;;;-1.45;71.73;96225.59;1755741;80;24434;-62
2020/12/04 05:40:47;;;;;;;27.45;16.15;;;;;;;-1.41;71.55;96232.27;1738105;81;21687;-62
2020/12/04 05:43:15;;;;;;;24.95;15.25;;;;;;;-1.48;71.22;96229.52;1739567;81;21093;-61
2020/12/04 05:45:43;;;;;;;27.48;16.42;;;;;;;-1.59;71.35;96230.26;1746226;81;26883;-61
2020/12/04 05:48:15;;;;;;;29.40;16.75;;;;;;;-1.62;71.47;96236.25;1738678;81;21141;-61
2020/12/04 05:50:43;;;;;;;28.35;16.15;;;;;;;-1.64;71.55;96238.02;1753827;81;21109;-61
2020/12/04 05:53:11;;;;;;;26.83;16.47;;;;;;;-1.69;71.27;96230.50;1746099;81;22324;-61
2020/12/04 05:55:39;;;;;;;24.40;14.93;;;;;;;-1.73;71.41;96235.71;1740099;81;21247;-62
2020/12/04 05:58:09;;;;;;;22.82;14.85;;;;;;;-1.71;71.36;96230.99;1737671;81;21485;-66
2020/12/04 06:00:36;;;;;;;25.12;15.30;;;;;;;-1.71;71.37;96234.81;1749110;80;21097;-64
2020/12/04 06:03:05;;;;;;;27.73;16.17;;;;;;;-1.86;71.81;96222.08;1744950;81;21046;-62
2020/12/04 06:05:32;;;;;;;28.73;15.75;;;;;;;-1.95;72.72;96227.84;1740047;81;22132;-61
2020/12/04 06:08:05;;;;;;;27.05;15.75;;;;;;;-2.01;73.04;96233.91;1758503;81;21120;-60
2020/12/04 06:10:34;;;;;;;26.50;15.95;;;;;;;-2.10;73.50;96230.36;1754401;81;21574;-59
2020/12/04 06:13:02;;;;;;;30.62;17.40;;;;;;;-2.17;75.09;96227.14;1710507;83;21489;-61
2020/12/04 06:15:34;;;;;;;28.75;15.72;;;;;;;-2.26;75.23;96232.45;1741660;81;21116;-61
2020/12/04 06:18:06;;;;;;;25.05;14.63;;;;;;;-2.21;75.78;96226.81;1757892;81;21270;-61
2020/12/04 06:20:49;;;;;;;30.70;15.32;;;;;;;-2.23;76.04;96233.65;1754538;81;21211;-61
2020/12/04 06:23:18;;;;;;;25.72;15.48;;;;;;;-2.27;76.33;96232.90;1719919;81;21070;-62
2020/12/04 06:25:56;;;;;;;33.20;16.12;;;;;;;-2.14;76.33;96228.75;1745130;81;21072;-62
2020/12/04 06:28:33;;;;;;;27.95;15.43;;;;;;;-2.05;76.16;96231.89;1728703;83;21064;-63
2020/12/04 06:31:13;;;;;;;29.18;15.45;;;;;;;-2.15;76.23;96238.10;1728561;81;21829;-62
2020/12/04 06:33:49;;;;;;;26.12;14.50;;;;;;;-2.32;76.77;96239.81;1742795;81;21513;-62
2020/12/04 06:36:34;;;;;;;27.93;14.87;;;;;;;-2.49;77.32;96255.90;1758832;81;21062;-62
2020/12/04 06:39:04;;;;;;;30.37;16.40;;;;;;;-2.65;77.78;96260.50;1755130;81;21592;-62
2020/12/04 06:41:44;;;;;;;23.18;13.25;;;;;;;-2.67;78.11;96254.62;1735783;81;21561;-65
2020/12/04 06:44:20;;;;;;;27.70;14.53;;;;;;;-2.55;77.96;96248.00;1732457;81;22319;-63
2020/12/04 06:46:56;;;;;;;25.23;13.43;;;;;;;-2.53;77.76;96264.03;1756605;81;21623;-62
2020/12/04 06:52:12;;;;;;;25.05;14.60;;;;;;;-2.52;78.03;96255.97;1746184;81;21144;-61
2020/12/04 06:54:48;;;;;;;26.30;13.88;;;;;;;-2.50;78.27;96263.97;1731645;81;21101;-60
2020/12/04 06:57:21;;;;;;;30.12;16.90;;;;;;;-2.42;78.22;96268.42;1722889;82;21427;-61
2020/12/04 06:59:48;;;;;;;28.62;15.63;;;;;;;-2.29;78.03;96271.92;1728398;83;21192;-61
2020/12/04 07:02:20;;;;;;;22.47;13.00;;;;;;;-2.13;77.80;96281.28;1738713;81;21137;-61
2020/12/04 07:04:54;;;;;;;21.60;11.78;;;;;;;-2.02;77.38;96280.57;1756932;81;21157;-60
2020/12/04 07:10:03;;;;;;;27.80;15.40;;;;;;;-1.90;77.06;96267.97;1861038;76;23231;-63
2020/12/04 07:12:31;;;;;;;23.10;13.03;;;;;;;-1.94;77.10;96257.47;1821479;78;21450;-63
2020/12/04 07:15:00;;;;;;;24.30;13.25;;;;;;;-1.82;77.17;96263.52;1820709;77;22085;-65
2020/12/04 07:17:29;;;;;;;28.05;16.32;;;;;;;-1.73;76.83;96263.70;1816729;79;21069;-62
2020/12/04 07:19:59;;;;;;;24.23;14.85;;;;;;;-1.65;76.65;96268.13;1816620;79;21465;-64
2020/12/04 07:22:27;;;;;;;25.80;15.05;;;;;;;-1.55;76.55;96275.08;1816625;79;21124;-61
2020/12/04 07:24:56;;;;;;;30.50;16.93;;;;;;;-1.50;76.18;96263.06;1824122;77;21592;-63
2020/12/04 07:27:29;;;;;;;27.87;15.75;;;;;;;-1.47;76.12;96265.97;1823171;77;21368;-64
2020/12/04 07:29:56;;;;;;;28.23;14.10;;;;;;;-1.50;76.15;96271.97;1810118;77;21553;-64
2020/12/04 07:32:25;;;;;;;31.33;16.87;;;;;;;-1.36;75.99;96276.69;1819240;77;21107;-64
2020/12/04 07:34:53;;;;;;;26.57;14.73;;;;;;;-1.23;75.78;96272.91;1829914;77;21608;-62
2020/12/04 07:37:28;;;;;;;29.00;15.23;;;;;;;-1.02;75.06;96282.91;1832965;77;21104;-66
2020/12/04 07:39:55;;;;;;;28.67;15.68;;;;;;;-0.96;74.39;96279.33;1830930;77;21254;-63
2020/12/04 07:42:23;;;;;;;30.50;16.93;;;;;;;-1.12;74.23;96264.52;1813751;77;21160;-61
2020/12/04 07:44:52;;;;;;;24.27;14.50;;;;;;;-1.30;74.78;96259.94;1823259;78;21122;-62
2020/12/04 07:47:20;;;;;;;30.88;16.75;;;;;;;-1.34;75.22;96264.73;1821544;77;21037;-62
2020/12/04 07:49:54;;;;;;;28.65;16.10;;;;;;;-1.25;75.06;96268.30;1816363;77;21055;-61
2020/12/04 07:52:23;;;;;;;31.55;17.77;;;;;;;-0.82;74.49;96263.20;1816669;77;21374;-61
2020/12/04 07:55:03;;;;;;;32.95;17.17;;;;;;;-0.31;73.62;96269.25;1820095;77;21123;-62
2020/12/04 07:58:01;;;;;;;29.05;15.23;;;;;;;-0.04;70.98;96267.94;1805452;78;21106;-61
2020/12/04 08:00:35;;;;;;;32.60;17.50;;;;;;;0.27;70.06;96259.24;1813729;77;21172;-61
2020/12/04 08:03:06;;;;;;;28.35;15.95;;;;;;;0.64;68.87;96251.53;1821661;77;21144;-62
2020/12/04 08:05:35;;;;;;;28.23;16.60;;;;;;;1.12;67.05;96259.97;1803292;78;21223;-62
2020/12/04 08:08:04;;;;;;;;;;;;;;;1.19;66.13;96240.52;1811602;78;21603;-61
2020/12/04 08:10:31;;;;;;;26.80;14.93;;;;;;;0.93;66.43;96245.80;1824093;78;20215;-60
2020/12/04 08:12:59;;;;;;;30.72;16.00;;;;;;;1.04;67.40;96243.22;1817669;78;21551;-61
2020/12/04 08:15:27;;;;;;;27.32;16.00;;;;;;;1.55;66.24;96245.07;1826199;78;21716;-62
2020/12/04 08:18:04;;;;;;;29.27;17.57;;;;;;;1.99;63.99;96240.28;1819888;78;22085;-61
2020/12/04 08:20:31;;;;;;;28.70;17.37;;;;;;;2.51;62.94;96237.23;1760747;80;21110;-63
2020/12/04 08:22:59;;;;;;;25.80;17.20;;;;;;;3.38;60.31;96234.13;1802803;77;21187;-62
2020/12/04 08:25:31;;;;;;;29.82;18.62;;;;;;;3.92;57.64;96239.23;1817514;77;21108;-62
2020/12/04 08:28:00;;;;;;;26.57;16.55;;;;;;;4.21;57.68;96238.59;1814924;78;21064;-62
2020/12/04 08:30:29;;;;;;;25.48;16.12;;;;;;;4.45;54.79;96239.98;1815886;78;21052;-64
2020/12/04 08:33:05;;;;;;;26.75;18.07;;;;;;;4.40;54.56;96236.36;1812643;78;21112;-60
2020/12/04 08:35:38;;;;;;;27.40;17.37;;;;;;;3.86;56.15;96225.80;1817377;78;21136;-50
2020/12/04 08:38:09;;;;;;;27.60;17.60;;;;;;;3.27;57.93;96225.22;1812976;77;21112;-51
2020/12/04 08:40:47;;;;;;;31.05;17.45;;;;;;;3.11;59.00;96226.84;1816773;77;21085;-49
2020/12/04 08:43:24;;;;;;;28.77;17.55;;;;;;;2.61;60.04;96219.72;1813030;78;21382;-48
2020/12/04 08:45:57;;;;;;;29.05;18.20;;;;;;;1.78;62.31;96216.45;1824229;77;21474;-49
2020/12/04 08:48:28;;;;;;;28.65;17.23;;;;;;;1.18;64.83;96227.34;1810424;77;21216;-50
2020/12/04 08:50:59;;;;;;;28.62;18.02;;;;;;;0.72;66.71;96234.20;1809692;78;21130;-50
2020/12/04 08:53:29;;;;;;;29.45;17.20;;;;;;;0.34;68.40;96230.88;1806035;78;21061;-49
2020/12/04 08:55:58;;;;;;;30.70;18.00;;;;;;;-0.07;69.99;96233.61;1821536;78;22425;-48
2020/12/04 08:58:27;;;;;;;30.00;17.67;;;;;;;-0.35;71.32;96228.60;1817462;78;21562;-49
2020/12/04 09:00:58;;;;;;;29.20;17.55;;;;;;;-0.49;71.66;96227.34;1808392;78;21141;-50
2020/12/04 09:03:27;;;;;;;28.62;18.17;;;;;;;-0.33;71.66;96223.00;1814965;78;21125;-50
2020/12/04 09:05:55;;;;;;;29.23;16.70;;;;;;;-0.24;71.33;96222.26;1826796;78;21513;-50
2020/12/04 09:08:23;;;;;;;30.72;17.27;;;;;;;-0.16;71.19;96209.71;1813485;78;21372;-50
2020/12/04 09:10:52;;;;;;;27.58;16.65;;;;;;;-0.12;71.03;96216.36;1814331;78;21075;-49
2020/12/04 09:13:19;;;;;;;26.30;16.48;;;;;;;0.01;71.21;96215.05;1829241;78;21204;-50
2020/12/04 09:15:47;;;;;;;27.02;17.62;;;;;;;0.81;69.27;96220.28;1816968;78;21756;-49
2020/12/04 09:18:16;;;;;;;29.02;17.60;;;;;;;1.82;66.49;96215.41;1813494;78;21108;-49
2020/12/04 09:20:44;;;;;;;26.80;17.82;;;;;;;2.75;63.11;96218.20;1819814;78;21518;-51
2020/12/04 09:23:11;;;;;;;27.98;17.07;;;;;;;3.45;61.10;96220.09;1818813;78;21499;-50
2020/12/04 09:25:39;;;;;;;29.20;17.37;;;;;;;3.88;58.54;96224.41;1831694;78;21117;-50
2020/12/04 09:28:09;;;;;;;27.35;17.12;;;;;;;4.05;57.78;96223.13;1816433;78;21086;-51
2020/12/04 09:30:36;;;;;;;26.40;16.75;;;;;;;4.15;56.92;96206.80;1820873;78;21131;-52
2020/12/04 09:33:04;;;;;;;24.15;16.48;;;;;;;4.35;56.60;96214.76;1812931;78;21332;-50
2020/12/04 09:35:32;;;;;;;28.83;18.27;;;;;;;4.89;55.81;96209.36;1813933;78;21078;-50
2020/12/04 09:37:59;;;;;;;24.47;16.25;;;;;;;5.42;54.58;96194.92;1818051;78;21078;-51
2020/12/04 09:40:27;;;;;;;30.55;17.40;;;;;;;5.38;52.83;96200.70;1810877;78;21596;-50
2020/12/04 09:42:55;;;;;;;27.40;17.82;;;;;;;4.86;54.15;96186.39;1815792;78;21124;-50
2020/12/04 09:45:22;;;;;;;29.15;18.60;;;;;;;4.33;55.48;96179.34;1812420;78;21095;-51
2020/12/04 09:47:50;;;;;;;28.20;17.62;;;;;;;4.07;56.79;96194.80;1814537;78;21579;-53
2020/12/04 09:50:18;;;;;;;27.30;17.05;;;;;;;4.01;56.67;96176.70;1836017;77;21082;-50
2020/12/04 09:52:46;;;;;;;29.23;17.25;;;;;;;3.90;56.97;96185.41;1836955;78;21636;-50
2020/12/04 09:55:14;;;;;;;27.35;17.25;;;;;;;4.01;57.49;96184.84;1802882;78;21550;-50
2020/12/04 09:57:43;;;;;;;;;;;;;;;4.50;56.55;96191.29;1799547;78;22251;-49
2020/12/04 10:00:11;;;;;;;29.72;18.40;;;;;;;5.07;54.52;96180.53;1813702;78;20673;-51
2020/12/04 10:02:40;;;;;;;26.40;17.30;;;;;;;5.49;54.24;96179.06;1811293;78;26852;-51
2020/12/04 10:05:07;;;;;;;29.40;18.92;;;;;;;6.11;52.37;96175.52;1810996;78;21089;-49
2020/12/04 10:07:35;;;;;;;28.12;17.57;;;;;;;6.18;51.49;96174.22;1837564;78;21633;-49
2020/12/04 10:10:04;;;;;;;28.17;18.05;;;;;;;6.45;51.11;96173.03;1826910;78;21181;-51
2020/12/04 10:12:32;;;;;;;26.15;16.95;;;;;;;6.83;49.80;96169.50;1825360;77;21069;-49
2020/12/04 10:14:59;;;;;;;26.02;17.45;;;;;;;7.16;48.94;96166.06;1823244;78;21042;-52
2020/12/04 10:17:27;;;;;;;23.80;17.00;;;;;;;7.52;47.73;96159.94;1821579;78;21140;-51
2020/12/04 10:19:55;;;;;;;26.40;17.42;;;;;;;7.32;46.87;96166.40;1828257;78;21136;-50
2020/12/04 10:22:23;;;;;;;25.00;16.27;;;;;;;6.90;48.45;96171.58;1813035;78;21392;-51
2020/12/04 10:24:50;;;;;;;24.77;15.08;;;;;;;7.14;48.41;96173.09;1812478;78;21092;-51
2020/12/04 10:27:18;;;;;;;26.93;16.48;;;;;;;7.60;47.43;96175.76;1821958;78;21089;-49
2020/12/04 10:29:47;;;;;;;23.02;15.83;;;;;;;7.91;46.99;96178.44;1810936;78;21123;-50
2020/12/04 10:32:15;;;;;;;25.93;17.50;;;;;;;8.11;46.33;96177.10;1821899;78;21134;-51
2020/12/04 10:34:43;;;;;;;28.75;17.12;;;;;;;8.02;46.55;96178.19;1812380;78;21337;-50
2020/12/04 10:37:10;;;;;;;22.95;16.42;;;;;;;7.64;46.43;96166.05;1826682;78;21062;-50
2020/12/04 10:39:38;;;;;;;25.62;16.57;;;;;;;6.68;48.31;96163.07;1796124;79;21077;-50
2020/12/04 10:42:05;;;;;;;26.85;16.90;;;;;;;5.69;50.82;96166.33;1824165;78;21109;-49
2020/12/04 10:44:33;;;;;;;28.92;17.70;;;;;;;4.87;53.26;96170.06;1812225;78;21589;-50
2020/12/04 10:47:01;;;;;;;26.30;15.78;;;;;;;4.38;54.68;96176.54;1810063;78;21375;-51
2020/12/04 10:49:29;;;;;;;24.63;17.35;;;;;;;4.15;55.65;96173.42;1814775;78;21061;-54
2020/12/04 10:51:58;;;;;;;25.25;16.80;;;;;;;3.82;56.70;96163.96;1815308;78;21169;-52
2020/12/04 10:54:25;;;;;;;27.20;16.73;;;;;;;3.47;57.67;96175.96;1810935;78;21144;-51
2020/12/04 10:56:55;;;;;;;28.87;17.87;;;;;;;3.25;58.61;96163.36;1823150;78;21137;-52
2020/12/04 10:59:23;;;;;;;29.07;17.87;;;;;;;3.04;59.40;96171.19;1814621;78;22237;-52
2020/12/04 11:07:14;;;;;;;28.92;18.00;;;;;;;2.60;61.11;96171.52;1838431;78;21118;-53
2020/12/04 11:09:43;;;;;;;26.97;17.15;;;;;;;2.55;61.76;96163.21;1835244;78;21189;-53
2020/12/04 11:12:11;;;;;;;28.27;17.70;;;;;;;2.50;61.87;96165.13;1839111;78;21008;-53
2020/12/04 11:14:43;;;;;;;30.30;17.95;;;;;;;2.34;62.30;96153.48;1823903;78;21502;-54
2020/12/04 11:17:10;;;;;;;28.57;16.55;;;;;;;2.25;62.59;96155.16;1818563;78;21523;-53
2020/12/04 11:19:37;;;;;;;25.23;16.20;;;;;;;2.30;62.72;96155.78;1840466;77;21065;-51
2020/12/04 11:22:05;;;;;;;26.25;16.57;;;;;;;2.35;62.93;96158.97;1826619;77;22178;-51
2020/12/04 11:24:33;;;;;;;30.43;18.75;;;;;;;2.36;63.06;96167.86;1838100;78;21000;-51
2020/12/04 11:27:02;;;;;;;25.72;14.83;;;;;;;2.45;63.11;96155.11;1828069;78;21085;-51
2020/12/04 11:29:31;;;;;;;31.57;17.85;;;;;;;2.64;62.88;96156.38;1757862;80;21192;-51
2020/12/04 11:31:59;;;;;;;26.95;17.55;;;;;;;2.70;62.50;96152.25;1775638;80;21589;-51
2020/12/04 11:34:28;;;;;;;26.62;16.65;;;;;;;2.65;62.76;96159.32;1764945;80;21490;-51
2020/12/04 11:36:56;;;;;;;25.95;16.75;;;;;;;2.66;63.14;96160.97;1764525;80;21080;-53
2020/12/04 11:39:24;;;;;;;29.50;18.32;;;;;;;2.69;62.76;96156.98;1758286;79;21496;-51
2020/12/04 11:41:52;;;;;;;26.05;16.52;;;;;;;2.64;63.31;96155.09;1762885;80;21600;-51
2020/12/04 11:44:20;;;;;;;26.85;16.65;;;;;;;2.66;63.60;96152.46;1745836;82;21548;-51